createdAt,value
2016-04-21T00:00:22.005Z,6.38
2016-04-21T00:01:22.086Z,6.41
2016-04-21T00:02:21.980Z,6.32
2016-04-21T00:03:22.170Z,6.3
2016-04-21T00:04:22.203Z,6.3
2016-04-21T00:05:22.238Z,6.18
2016-04-21T00:06:22.271Z,6.3
2016-04-21T00:07:22.368Z,6.19
2016-04-21T00:08:22.339Z,6.16
2016-04-21T00:09:22.389Z,6.22
2016-04-21T00:10:22.455Z,6.11
2016-04-21T00:11:22.457Z,6.14
2016-04-21T00:12:22.491Z,6.13
2016-04-21T00:13:22.525Z,6.1
2016-04-21T00:14:22.558Z,6.03
2016-04-21T00:15:22.624Z,6.07
2016-04-21T00:16:22.626Z,6.13
2016-04-21T00:17:22.660Z,6.16
2016-04-21T00:18:22.710Z,6.03
2016-04-21T00:19:22.744Z,6.11
2016-04-21T00:20:22.779Z,6.11
2016-04-21T00:21:22.827Z,6.14
2016-04-21T00:22:22.909Z,6.14
2016-04-21T00:23:22.895Z,6.11
2016-04-21T00:24:22.914Z,6.25
2016-04-21T00:25:22.978Z,6.19
2016-04-21T00:26:23.012Z,6.26
2016-04-21T00:27:23.031Z,6.29
2016-04-21T00:28:23.081Z,6.33
2016-04-21T00:29:23.146Z,6.18
2016-04-21T00:30:23.148Z,6.22
2016-04-21T00:31:23.183Z,6.21
2016-04-21T00:32:23.231Z,6.22
2016-04-21T00:33:23.578Z,6.1
2016-04-21T00:34:23.269Z,6.16
2016-04-21T00:35:23.318Z,6.19
2016-04-21T00:36:23.400Z,6.03
2016-04-21T00:37:23.402Z,6.16
2016-04-21T00:38:23.419Z,6.09
2016-04-21T00:39:23.470Z,6.06
2016-04-21T00:40:23.550Z,6.07
2016-04-21T00:41:23.537Z,6.09
2016-04-21T00:42:23.571Z,6.06
2016-04-21T00:43:23.605Z,6.04
2016-04-21T00:44:23.702Z,6.09
2016-04-21T00:45:23.674Z,6.03
2016-04-21T00:46:23.707Z,6.04
2016-04-21T00:47:23.741Z,6.07
2016-04-21T00:48:23.040Z,6.01
2016-04-21T00:49:23.824Z,5.96
2016-04-21T00:50:23.859Z,6.04
2016-04-21T00:51:23.954Z,5.95
2016-04-21T00:52:23.927Z,5.85
2016-04-21T00:53:23.960Z,5.93
2016-04-21T00:54:23.995Z,5.88
2016-04-21T00:55:24.107Z,5.78
2016-04-21T00:56:24.093Z,5.85
2016-04-21T00:57:24.096Z,5.85
2016-04-21T00:58:24.130Z,5.81
2016-04-21T00:59:24.211Z,5.71
2016-04-21T01:00:24.198Z,5.71
2016-04-21T01:01:24.248Z,5.74
2016-04-21T01:02:23.547Z,5.7
2016-04-21T01:03:24.347Z,5.71
2016-04-21T01:04:24.365Z,5.67
2016-04-21T01:05:24.444Z,5.57
2016-04-21T01:06:24.555Z,5.66
2016-04-21T01:07:24.602Z,5.55
2016-04-21T01:08:24.697Z,5.64
2016-04-21T01:09:24.798Z,5.6
2016-04-21T01:10:24.849Z,5.55
2016-04-21T01:11:24.868Z,5.67
2016-04-21T01:12:24.934Z,5.67
2016-04-21T01:13:24.984Z,5.63
2016-04-21T01:14:25.015Z,5.64
2016-04-21T01:15:25.055Z,5.59
2016-04-21T01:16:25.110Z,5.64
2016-04-21T01:17:25.150Z,5.64
2016-04-21T01:18:25.189Z,5.63
2016-04-21T01:19:25.229Z,5.57
2016-04-21T01:20:25.281Z,5.59
2016-04-21T01:21:25.363Z,5.57
2016-04-21T01:22:25.341Z,5.46
2016-04-21T01:23:25.392Z,5.46
2016-04-21T01:24:25.428Z,5.48
2016-04-21T01:25:25.479Z,5.49
2016-04-21T01:26:25.498Z,5.4
2016-04-21T01:27:25.533Z,5.43
2016-04-21T01:28:25.567Z,5.41
2016-04-21T01:29:25.602Z,5.52
2016-04-21T01:30:25.652Z,5.46
2016-04-21T01:31:25.670Z,5.4
2016-04-21T01:32:25.751Z,5.52
2016-04-21T01:33:25.739Z,5.52
2016-04-21T01:34:25.773Z,5.49
2016-04-21T01:35:25.807Z,5.35
2016-04-21T01:36:25.076Z,5.52
2016-04-21T01:37:25.875Z,5.4
2016-04-21T01:38:25.910Z,5.43
2016-04-21T01:39:25.974Z,5.45
2016-04-21T01:40:25.993Z,5.4
2016-04-21T01:41:26.026Z,5.59
2016-04-21T01:42:26.061Z,5.52
2016-04-21T01:43:26.094Z,5.45
2016-04-21T01:44:26.128Z,5.55
2016-04-21T01:45:26.162Z,5.55
2016-04-21T01:46:26.212Z,5.43
2016-04-21T01:47:26.246Z,5.5
2016-04-21T01:48:26.264Z,5.5
2016-04-21T01:49:26.142Z,5.45
2016-04-21T01:50:26.332Z,5.55
2016-04-21T01:51:26.381Z,5.45
2016-04-21T01:52:26.400Z,5.55
2016-04-21T01:53:26.450Z,5.53
2016-04-21T01:54:26.515Z,5.43
2016-04-21T01:55:26.517Z,5.41
2016-04-21T01:56:26.552Z,5.43
2016-04-21T01:57:26.616Z,5.41
2016-04-21T01:58:26.635Z,5.46
2016-04-21T01:59:26.652Z,5.43
2016-04-21T02:00:26.702Z,5.43
2016-04-21T02:01:26.799Z,5.28
2016-04-21T02:02:26.755Z,5.37
2016-04-21T02:03:26.789Z,5.31
2016-04-21T02:04:26.838Z,5.35
2016-04-21T02:05:26.873Z,5.3
2016-04-21T02:06:26.906Z,5.37
2016-04-21T02:07:26.941Z,5.31
2016-04-21T02:08:26.974Z,5.32
2016-04-21T02:09:27.024Z,5.25
2016-04-21T02:10:27.042Z,5.22
2016-04-21T02:11:27.076Z,5.28
2016-04-21T02:12:27.156Z,5.3
2016-04-21T02:13:27.145Z,5.27
2016-04-21T02:14:27.179Z,5.28
2016-04-21T02:15:27.275Z,5.27
2016-04-21T02:16:27.245Z,5.35
2016-04-21T02:17:27.295Z,5.25
2016-04-21T02:18:27.328Z,5.3
2016-04-21T02:19:27.410Z,5.23
2016-04-21T02:20:27.398Z,5.25
2016-04-21T02:21:27.447Z,5.09
2016-04-21T02:22:27.496Z,5.2
2016-04-21T02:23:27.436Z,5.13
2016-04-21T02:24:27.534Z,5.17
2016-04-21T02:25:27.567Z,5.19
2016-04-21T02:26:27.648Z,5.1
2016-04-21T02:27:27.635Z,5.16
2016-04-21T02:28:27.685Z,5.2
2016-04-21T02:29:27.734Z,5.16
2016-04-21T02:30:27.768Z,5.14
2016-04-21T02:31:27.833Z,5.12
2016-04-21T02:32:27.820Z,5.27
2016-04-21T02:33:27.869Z,5.14
2016-04-21T02:34:27.904Z,5.12
2016-04-21T02:35:27.921Z,5.09
2016-04-21T02:36:27.957Z,5.14
2016-04-21T02:37:28.068Z,5.1
2016-04-21T02:38:28.040Z,5.14
2016-04-21T02:39:27.293Z,5.19
2016-04-21T02:40:28.107Z,5.12
2016-04-21T02:41:28.188Z,5.12
2016-04-21T02:42:28.159Z,5.12
2016-04-21T02:43:28.209Z,5.07
2016-04-21T02:44:28.274Z,5.14
2016-04-21T02:45:28.276Z,5.13
2016-04-21T02:46:28.312Z,5.07
2016-04-21T02:47:28.345Z,5.04
2016-04-21T02:48:28.395Z,5.1
2016-04-21T02:49:28.428Z,5.04
2016-04-21T02:50:28.447Z,5.1
2016-04-21T02:51:28.497Z,5.02
2016-04-21T02:52:28.545Z,5.1
2016-04-21T02:53:28.548Z,5.09
2016-04-21T02:54:28.598Z,5.13
2016-04-21T02:55:28.663Z,5.07
2016-04-21T02:56:28.713Z,5.05
2016-04-21T02:57:28.699Z,5.09
2016-04-21T02:58:28.734Z,4.99
2016-04-21T02:59:28.768Z,4.99
2016-04-21T03:00:28.802Z,5.01
2016-04-21T03:01:28.836Z,4.99
2016-04-21T03:02:28.869Z,4.96
2016-04-21T03:03:28.919Z,4.96
2016-04-21T03:04:28.938Z,4.92
2016-04-21T03:05:28.971Z,4.88
2016-04-21T03:06:29.021Z,4.89
2016-04-21T03:07:29.070Z,4.88
2016-04-21T03:08:29.073Z,4.96
2016-04-21T03:09:29.108Z,4.92
2016-04-21T03:10:29.157Z,4.86
2016-04-21T03:11:29.191Z,4.95
2016-04-21T03:12:29.209Z,4.88
2016-04-21T03:13:29.259Z,4.96
2016-04-21T03:14:29.309Z,4.98
2016-04-21T03:15:29.326Z,4.98
2016-04-21T03:16:29.345Z,4.92
2016-04-21T03:17:29.425Z,4.96
2016-04-21T03:18:29.459Z,4.98
2016-04-21T03:19:29.462Z,4.95
2016-04-21T03:20:29.495Z,4.99
2016-04-21T03:21:29.597Z,4.96
2016-04-21T03:22:29.557Z,4.96
2016-04-21T03:23:29.607Z,4.98
2016-04-21T03:24:29.640Z,5.01
2016-04-21T03:25:29.690Z,4.98
2016-04-21T03:26:29.709Z,5.04
2016-04-21T03:27:29.742Z,5.01
2016-04-21T03:28:29.808Z,4.95
2016-04-21T03:29:29.873Z,4.92
2016-04-21T03:30:29.844Z,4.92
2016-04-21T03:31:29.894Z,4.91
2016-04-21T03:32:29.912Z,4.92
2016-04-21T03:33:30.009Z,4.94
2016-04-21T03:34:29.980Z,4.91
2016-04-21T03:35:30.014Z,4.88
2016-04-21T03:36:30.064Z,4.79
2016-04-21T03:37:29.332Z,4.83
2016-04-21T03:38:30.178Z,4.84
2016-04-21T03:39:30.150Z,4.86
2016-04-21T03:40:30.246Z,4.79
2016-04-21T03:41:29.452Z,4.77
2016-04-21T03:42:30.267Z,4.79
2016-04-21T03:43:30.302Z,4.72
2016-04-21T03:44:30.366Z,4.79
2016-04-21T03:45:30.369Z,4.65
2016-04-21T03:46:30.402Z,4.69
2016-04-21T03:47:30.469Z,4.65
2016-04-21T03:48:30.502Z,4.7
2016-04-21T03:49:29.739Z,4.62
2016-04-21T03:50:30.538Z,4.64
2016-04-21T03:51:30.635Z,4.73
2016-04-21T03:52:30.606Z,4.65
2016-04-21T03:53:30.672Z,4.73
2016-04-21T03:54:30.674Z,4.73
2016-04-21T03:55:30.724Z,4.77
2016-04-21T03:56:30.743Z,4.7
2016-04-21T03:57:30.776Z,4.76
2016-04-21T03:58:30.826Z,4.73
2016-04-21T03:59:30.859Z,4.7
2016-04-21T04:00:30.878Z,4.73
2016-04-21T04:01:30.912Z,4.79
2016-04-21T04:02:30.993Z,4.75
2016-04-21T04:03:31.026Z,4.75
2016-04-21T04:04:31.029Z,4.84
2016-04-21T04:05:31.064Z,4.88
2016-04-21T04:06:31.113Z,4.83
2016-04-21T04:07:31.131Z,4.86
2016-04-21T04:08:31.180Z,4.83
2016-04-21T04:09:31.200Z,4.79
2016-04-21T04:10:31.295Z,4.84
2016-04-21T04:11:31.267Z,4.86
2016-04-21T04:12:31.300Z,4.83
2016-04-21T04:13:31.350Z,4.79
2016-04-21T04:14:31.446Z,4.84
2016-04-21T04:15:31.402Z,4.77
2016-04-21T04:16:31.436Z,4.77
2016-04-21T04:17:31.486Z,4.84
2016-04-21T04:18:31.536Z,4.88
2016-04-21T04:19:31.538Z,4.91
2016-04-21T04:20:31.572Z,4.88
2016-04-21T04:21:31.622Z,4.88
2016-04-21T04:22:31.641Z,4.91
2016-04-21T04:23:31.721Z,4.91
2016-04-21T04:24:31.724Z,4.83
2016-04-21T04:25:31.804Z,4.88
2016-04-21T04:26:31.792Z,4.89
2016-04-21T04:27:31.826Z,4.98
2016-04-21T04:28:31.859Z,4.95
2016-04-21T04:29:31.957Z,4.94
2016-04-21T04:30:31.928Z,4.95
2016-04-21T04:31:31.946Z,5.04
2016-04-21T04:32:32.011Z,4.99
2016-04-21T04:33:32.076Z,4.99
2016-04-21T04:34:32.063Z,5.02
2016-04-21T04:35:32.098Z,5.05
2016-04-21T04:36:32.162Z,5.04
2016-04-21T04:37:32.197Z,5.04
2016-04-21T04:38:32.215Z,5.05
2016-04-21T04:39:32.280Z,5.02
2016-04-21T04:40:32.267Z,5.02
2016-04-21T04:41:32.144Z,5.09
2016-04-21T04:42:32.335Z,5.1
2016-04-21T04:43:32.384Z,5.07
2016-04-21T04:44:32.403Z,5.13
2016-04-21T04:45:32.436Z,5.07
2016-04-21T04:46:33.205Z,5.17
2016-04-21T04:47:32.535Z,5.09
2016-04-21T04:48:32.602Z,5.1
2016-04-21T04:49:32.604Z,5.04
2016-04-21T04:50:32.622Z,5.14
2016-04-21T04:51:32.734Z,5.17
2016-04-21T04:52:32.783Z,5.12
2016-04-21T04:53:32.724Z,5.16
2016-04-21T04:54:33.789Z,5.1
2016-04-21T04:55:32.792Z,5.17
2016-04-21T04:56:32.841Z,5.12
2016-04-21T04:57:32.891Z,5.22
2016-04-21T04:58:37.315Z,5.2
2016-04-21T04:59:32.943Z,5.13
2016-04-21T05:00:33.039Z,5.1
2016-04-21T05:01:34.621Z,5.13
2016-04-21T05:02:34.951Z,5.19
2016-04-21T05:03:34.017Z,5.17
2016-04-21T05:04:33.112Z,5.16
2016-04-21T05:05:33.334Z,5.17
2016-04-21T05:06:33.383Z,5.17
2016-04-21T05:07:33.261Z,5.12
2016-04-21T05:08:33.249Z,5.17
2016-04-21T05:09:33.283Z,5.27
2016-04-21T05:10:33.348Z,5.22
2016-04-21T05:11:33.366Z,5.16
2016-04-21T05:12:33.431Z,5.27
2016-04-21T05:13:33.621Z,5.3
2016-04-21T05:14:33.499Z,5.32
2016-04-21T05:15:33.517Z,5.38
2016-04-21T05:16:33.630Z,5.35
2016-04-21T05:17:33.679Z,5.38
2016-04-21T05:18:33.619Z,5.4
2016-04-21T05:19:33.653Z,5.41
2016-04-21T05:20:33.688Z,5.48
2016-04-21T05:21:33.815Z,5.53
2016-04-21T05:22:33.739Z,5.53
2016-04-21T05:23:33.820Z,5.48
2016-04-21T05:24:33.823Z,5.55
2016-04-21T05:25:34.185Z,5.55
2016-04-21T05:26:33.890Z,5.68
2016-04-21T05:27:34.081Z,5.68
2016-04-21T05:28:36.162Z,5.67
2016-04-21T05:29:35.555Z,5.71
2016-04-21T05:30:35.949Z,5.77
2016-04-21T05:31:36.388Z,5.77
2016-04-21T05:32:34.157Z,5.89
2016-04-21T05:33:34.243Z,5.86
2016-04-21T05:34:35.544Z,5.95
2016-04-21T05:35:34.061Z,6
2016-04-21T05:36:34.234Z,5.91
2016-04-21T05:37:34.384Z,6
2016-04-21T05:38:34.340Z,6.01
2016-04-21T05:39:36.156Z,6.07
2016-04-21T05:40:34.440Z,6.06
2016-04-21T05:41:34.442Z,6.07
2016-04-21T05:42:34.303Z,6.04
2016-04-21T05:43:34.667Z,6.13
2016-04-21T05:44:35.059Z,6.11
2016-04-21T05:45:34.592Z,6.16
2016-04-21T05:46:34.643Z,6.18
2016-04-21T05:47:36.380Z,6.25
2016-04-21T05:48:34.726Z,6.32
2016-04-21T05:49:34.714Z,6.28
2016-04-21T05:50:34.747Z,6.35
2016-04-21T05:51:34.828Z,6.44
2016-04-21T05:52:34.861Z,6.36
2016-04-21T05:53:35.069Z,6.41
2016-04-21T05:54:34.883Z,6.43
2016-04-21T05:55:34.932Z,6.46
2016-04-21T05:56:34.983Z,6.48
2016-04-21T05:57:34.985Z,6.53
2016-04-21T05:58:35.018Z,6.59
2016-04-21T05:59:35.069Z,6.66
2016-04-21T06:00:35.118Z,6.58
2016-04-21T06:01:35.136Z,6.72
2016-04-21T06:02:35.186Z,6.72
2016-04-21T06:03:35.282Z,6.73
2016-04-21T06:04:35.254Z,6.81
2016-04-21T06:05:35.288Z,6.8
2016-04-21T06:06:35.431Z,6.8
2016-04-21T06:07:35.371Z,6.94
2016-04-21T06:08:35.389Z,6.91
2016-04-21T06:09:35.423Z,7.01
2016-04-21T06:10:35.457Z,6.89
2016-04-21T06:11:35.507Z,7.07
2016-04-21T06:12:35.900Z,7.05
2016-04-21T06:13:40.684Z,7.09
2016-04-21T06:14:37.250Z,7.15
2016-04-21T06:15:37.299Z,7.16
2016-04-21T06:16:37.489Z,7.24
2016-04-21T06:17:37.554Z,7.29
2016-04-21T06:18:37.839Z,7.22
2016-04-21T06:19:39.481Z,7.2
2016-04-21T06:20:37.531Z,7.19
2016-04-21T06:21:37.861Z,7.35
2016-04-21T06:22:38.161Z,7.34
2016-04-21T06:23:36.258Z,7.31
2016-04-21T06:24:37.369Z,7.37
2016-04-21T06:25:37.560Z,7.4
2016-04-21T06:26:37.469Z,7.41
2016-04-21T06:27:38.003Z,7.42
2016-04-21T06:28:37.615Z,7.53
2016-04-21T06:29:37.493Z,7.44
2016-04-21T06:30:38.089Z,7.5
2016-04-21T06:31:37.436Z,7.49
2016-04-21T06:32:37.252Z,7.55
2016-04-21T06:33:37.332Z,7.66
2016-04-21T06:34:36.819Z,7.62
2016-04-21T06:35:36.337Z,7.62
2016-04-21T06:36:36.809Z,7.72
2016-04-21T06:37:36.530Z,7.72
2016-04-21T06:38:38.096Z,7.74
2016-04-21T06:39:37.598Z,7.81
2016-04-21T06:40:37.116Z,7.82
2016-04-21T06:41:38.494Z,7.94
2016-04-21T06:42:38.340Z,7.92
2016-04-21T06:43:38.077Z,7.93
2016-04-21T06:44:37.221Z,7.96
2016-04-21T06:45:38.833Z,7.99
2016-04-21T06:46:38.664Z,7.96
2016-04-21T06:47:36.620Z,8
2016-04-21T06:48:38.451Z,7.9
2016-04-21T06:49:37.844Z,8.07
2016-04-21T06:50:39.222Z,8.08
2016-04-21T06:51:37.443Z,8.1
2016-04-21T06:52:38.211Z,8.17
2016-04-21T06:53:37.401Z,8.11
2016-04-21T06:54:37.029Z,8.1
2016-04-21T06:55:38.500Z,8.14
2016-04-21T06:56:38.222Z,8.26
2016-04-21T06:57:38.272Z,8.22
2016-04-21T06:58:39.071Z,8.29
2016-04-21T06:59:38.589Z,8.36
2016-04-21T07:00:38.139Z,8.45
2016-04-21T07:01:38.126Z,8.45
2016-04-21T07:02:36.972Z,8.47
2016-04-21T07:03:37.788Z,8.48
2016-04-21T07:04:37.602Z,8.55
2016-04-21T07:05:38.465Z,8.62
2016-04-21T07:06:38.327Z,8.57
2016-04-21T07:07:38.548Z,8.57
2016-04-21T07:08:38.301Z,8.57
2016-04-21T07:09:39.054Z,8.72
2016-04-21T07:10:43.103Z,8.75
2016-04-21T07:11:39.371Z,8.76
2016-04-21T07:12:40.937Z,8.86
2016-04-21T07:13:37.815Z,8.79
2016-04-21T07:14:37.879Z,8.86
2016-04-21T07:15:37.851Z,8.91
2016-04-21T07:16:37.916Z,8.88
2016-04-21T07:17:38.294Z,9.02
2016-04-21T07:18:39.109Z,8.99
2016-04-21T07:19:38.564Z,9.01
2016-04-21T07:20:38.506Z,9.06
2016-04-21T07:21:38.695Z,8.97
2016-04-21T07:22:38.307Z,9.05
2016-04-21T07:23:39.295Z,9.12
2016-04-21T07:24:39.017Z,9.16
2016-04-21T07:25:42.737Z,9.24
2016-04-21T07:26:39.631Z,9.2
2016-04-21T07:27:39.368Z,9.32
2016-04-21T07:28:39.667Z,9.32
2016-04-21T07:29:39.858Z,9.35
2016-04-21T07:30:40.172Z,9.35
2016-04-21T07:31:39.378Z,9.46
2016-04-21T07:32:39.319Z,9.45
2016-04-21T07:33:38.524Z,9.56
2016-04-21T07:34:39.355Z,9.5
2016-04-21T07:35:39.467Z,9.6
2016-04-21T07:36:40.454Z,9.56
2016-04-21T07:37:39.380Z,9.57
2016-04-21T07:38:38.913Z,9.64
2016-04-21T07:39:38.759Z,9.66
2016-04-21T07:40:38.794Z,9.73
2016-04-21T07:41:38.827Z,9.78
2016-04-21T07:42:39.658Z,9.81
2016-04-21T07:43:38.974Z,9.82
2016-04-21T07:44:38.960Z,9.89
2016-04-21T07:45:39.229Z,10
2016-04-21T07:46:39.090Z,9.97
2016-04-21T07:47:39.500Z,9.94
2016-04-21T07:48:39.174Z,9.94
2016-04-21T07:49:39.208Z,9.99
2016-04-21T07:50:39.648Z,10.07
2016-04-21T07:51:39.995Z,10.07
2016-04-21T07:52:39.342Z,10.15
2016-04-21T07:53:39.297Z,10.1
2016-04-21T07:54:39.331Z,10.26
2016-04-21T07:55:39.365Z,10.25
2016-04-21T07:56:39.445Z,10.26
2016-04-21T07:57:39.433Z,10.25
2016-04-21T07:58:39.545Z,10.19
2016-04-21T07:59:39.516Z,10.24
2016-04-21T08:00:39.566Z,10.22
2016-04-21T08:01:39.615Z,10.33
2016-04-21T08:02:39.728Z,10.44
2016-04-21T08:03:39.683Z,10.39
2016-04-21T08:04:39.716Z,10.52
2016-04-21T08:05:39.799Z,10.46
2016-04-21T08:06:39.832Z,10.56
2016-04-21T08:07:39.819Z,10.58
2016-04-21T08:08:39.869Z,10.52
2016-04-21T08:09:40.012Z,10.63
2016-04-21T08:10:40.468Z,10.71
2016-04-21T08:11:41.610Z,10.7
2016-04-21T08:12:40.020Z,10.71
2016-04-21T08:13:40.101Z,10.74
2016-04-21T08:14:40.104Z,10.76
2016-04-21T08:15:40.138Z,10.73
2016-04-21T08:16:40.171Z,10.73
2016-04-21T08:17:40.252Z,10.83
2016-04-21T08:18:40.254Z,10.78
2016-04-21T08:19:40.290Z,10.83
2016-04-21T08:20:40.339Z,10.86
2016-04-21T08:21:40.420Z,10.92
2016-04-21T08:22:40.484Z,10.89
2016-04-21T08:23:40.455Z,10.83
2016-04-21T08:24:40.475Z,10.92
2016-04-21T08:25:40.555Z,10.86
2016-04-21T08:26:40.605Z,10.95
2016-04-21T08:27:40.622Z,10.91
2016-04-21T08:28:41.345Z,10.91
2016-04-21T08:29:40.706Z,11.01
2016-04-21T08:30:40.771Z,11.06
2016-04-21T08:31:40.978Z,10.99
2016-04-21T08:32:40.902Z,11.14
2016-04-21T08:33:40.827Z,11.14
2016-04-21T08:34:40.892Z,11.25
2016-04-21T08:35:40.941Z,11.35
2016-04-21T08:36:40.944Z,11.28
2016-04-21T08:37:40.977Z,11.36
2016-04-21T08:38:41.074Z,11.36
2016-04-21T08:39:41.093Z,11.39
2016-04-21T08:40:41.126Z,11.39
2016-04-21T08:41:41.146Z,11.44
2016-04-21T08:42:41.273Z,11.43
2016-04-21T08:43:41.276Z,11.53
2016-04-21T08:44:41.263Z,11.64
2016-04-21T08:45:41.296Z,11.68
2016-04-21T08:46:41.392Z,11.8
2016-04-21T08:47:41.865Z,11.86
2016-04-21T08:48:41.461Z,11.87
2016-04-21T08:49:41.479Z,11.93
2016-04-21T08:50:41.512Z,11.87
2016-04-21T08:51:41.953Z,11.93
2016-04-21T08:52:41.601Z,11.97
2016-04-21T08:53:40.917Z,12.02
2016-04-21T08:54:41.731Z,12.04
2016-04-21T08:55:41.703Z,12.05
2016-04-21T08:56:41.768Z,11.96
2016-04-21T08:57:41.802Z,12.06
2016-04-21T08:58:41.820Z,12.02
2016-04-21T08:59:41.854Z,12.02
2016-04-21T09:00:41.904Z,12.02
2016-04-21T09:01:41.939Z,12.06
2016-04-21T09:02:41.988Z,12.08
2016-04-21T09:03:42.021Z,12.15
2016-04-21T09:04:42.133Z,12.19
2016-04-21T09:05:42.168Z,12.15
2016-04-21T09:06:42.155Z,12.23
2016-04-21T09:07:42.173Z,12.27
2016-04-21T09:08:42.269Z,12.29
2016-04-21T09:09:42.319Z,12.23
2016-04-21T09:10:42.368Z,12.27
2016-04-21T09:11:42.340Z,12.39
2016-04-21T09:12:42.404Z,12.42
2016-04-21T09:13:42.455Z,12.39
2016-04-21T09:14:42.458Z,12.44
2016-04-21T09:15:42.491Z,12.51
2016-04-21T09:16:42.540Z,12.44
2016-04-21T09:17:42.606Z,12.41
2016-04-21T09:18:42.639Z,12.51
2016-04-21T09:19:42.659Z,12.49
2016-04-21T09:20:42.708Z,12.49
2016-04-21T09:21:42.804Z,12.48
2016-04-21T09:22:42.775Z,12.54
2016-04-21T09:23:42.825Z,12.57
2016-04-21T09:24:42.906Z,12.52
2016-04-21T09:25:42.784Z,12.6
2016-04-21T09:26:42.943Z,12.6
2016-04-21T09:27:42.978Z,12.64
2016-04-21T09:28:43.464Z,12.6
2016-04-21T09:29:43.108Z,12.69
2016-04-21T09:30:43.094Z,12.66
2016-04-21T09:31:43.472Z,12.74
2016-04-21T09:32:43.177Z,12.77
2016-04-21T09:33:43.274Z,12.78
2016-04-21T09:34:43.261Z,12.78
2016-04-21T09:35:43.295Z,12.89
2016-04-21T09:36:43.438Z,12.89
2016-04-21T09:37:43.394Z,12.99
2016-04-21T09:38:43.459Z,13.07
2016-04-21T09:39:43.463Z,13.17
2016-04-21T09:40:43.902Z,13.21
2016-04-21T09:41:43.546Z,13.24
2016-04-21T09:42:43.579Z,13.41
2016-04-21T09:43:43.629Z,13.47
2016-04-21T09:44:43.710Z,13.63
2016-04-21T09:45:43.728Z,13.63
2016-04-21T09:46:43.746Z,13.69
2016-04-21T09:47:43.827Z,13.8
2016-04-21T09:48:43.829Z,13.87
2016-04-21T09:49:43.943Z,13.99
2016-04-21T09:50:43.945Z,14.04
2016-04-21T09:51:44.134Z,14.07
2016-04-21T09:52:43.998Z,14.2
2016-04-21T09:53:44.031Z,14.16
2016-04-21T09:54:44.143Z,14.12
2016-04-21T09:55:44.474Z,14.2
2016-04-21T09:56:45.773Z,14.28
2016-04-21T09:57:44.229Z,14.32
2016-04-21T09:58:44.278Z,14.46
2016-04-21T09:59:44.314Z,14.53
2016-04-21T10:00:46.237Z,14.6
2016-04-21T10:01:45.397Z,14.49
2016-04-21T10:02:47.025Z,14.68
2016-04-21T10:03:44.495Z,14.84
2016-04-21T10:04:44.529Z,14.93
2016-04-21T10:05:45.438Z,15.09
2016-04-21T10:06:44.738Z,15.23
2016-04-21T10:07:46.350Z,15.45
2016-04-21T10:08:44.727Z,15.48
2016-04-21T10:09:44.808Z,15.6
2016-04-21T10:10:44.859Z,15.74
2016-04-21T10:11:45.015Z,15.94
2016-04-21T10:12:45.061Z,16.07
2016-04-21T10:13:45.155Z,16.26
2016-04-21T10:14:45.280Z,16.67
2016-04-21T10:15:45.322Z,16.99
2016-04-21T10:16:45.638Z,17.54
2016-04-21T10:17:45.484Z,18.07
2016-04-21T10:18:45.534Z,18.9
2016-04-21T10:19:46.147Z,19.68
2016-04-21T10:20:45.860Z,20.76
2016-04-21T10:21:45.743Z,21.71
2016-04-21T10:22:45.800Z,22.57
2016-04-21T10:23:45.855Z,23.55
2016-04-21T10:24:45.925Z,24.35
2016-04-21T10:25:45.978Z,25.17
2016-04-21T10:26:46.060Z,26.01
2016-04-21T10:27:46.112Z,26.74
2016-04-21T10:28:46.148Z,27.33
2016-04-21T10:29:46.216Z,28.14
2016-04-21T10:30:46.314Z,28.66
2016-04-21T10:31:46.332Z,29.19
2016-04-21T10:32:46.398Z,29.45
2016-04-21T10:33:46.448Z,30
2016-04-21T10:34:45.733Z,30.62
2016-04-21T10:35:46.564Z,31.31
2016-04-21T10:36:50.801Z,32.03
2016-04-21T10:37:52.665Z,32.69
2016-04-21T10:38:49.682Z,33.34
2016-04-21T10:39:48.717Z,33.83
2016-04-21T10:40:47.313Z,34.24
2016-04-21T10:41:48.066Z,34.56
2016-04-21T10:42:48.257Z,34.74
2016-04-21T10:43:48.259Z,35.21
2016-04-21T10:44:48.356Z,35.6
2016-04-21T10:45:49.593Z,35.91
2016-04-21T10:46:47.783Z,36.31
2016-04-21T10:47:47.490Z,36.43
2016-04-21T10:48:47.367Z,36.43
2016-04-21T10:49:47.542Z,36.58
2016-04-21T10:50:47.482Z,36.75
2016-04-21T10:51:47.562Z,36.9
2016-04-21T10:52:47.581Z,37.21
2016-04-21T10:53:47.787Z,37.54
2016-04-21T10:54:47.664Z,37.68
2016-04-21T10:55:47.808Z,38.03
2016-04-21T10:56:47.841Z,38.27
2016-04-21T10:57:47.922Z,38.48
2016-04-21T10:58:47.972Z,38.66
2016-04-21T10:59:48.021Z,38.87
2016-04-21T11:00:48.102Z,39.14
2016-04-21T11:01:48.152Z,39.35
2016-04-21T11:02:48.202Z,39.56
2016-04-21T11:03:48.266Z,39.64
2016-04-21T11:04:48.441Z,39.7
2016-04-21T11:05:48.428Z,39.74
2016-04-21T11:06:48.463Z,39.56
2016-04-21T11:07:48.511Z,39.42
2016-04-21T11:08:48.608Z,39.46
2016-04-21T11:09:48.673Z,39.64
2016-04-21T11:10:48.894Z,39.77
2016-04-21T11:11:48.757Z,39.99
2016-04-21T11:12:49.479Z,40.19
2016-04-21T11:13:48.871Z,40.23
2016-04-21T11:14:48.984Z,40.34
2016-04-21T11:15:49.018Z,40.53
2016-04-21T11:16:49.068Z,40.64
2016-04-21T11:17:49.303Z,40.65
2016-04-21T11:18:49.228Z,40.76
2016-04-21T11:19:49.465Z,40.74
2016-04-21T11:20:49.312Z,40.81
2016-04-21T11:21:49.439Z,40.74
2016-04-21T11:22:49.552Z,40.79
2016-04-21T11:23:49.586Z,40.69
2016-04-21T11:24:49.651Z,40.59
2016-04-21T11:25:49.669Z,40.61
2016-04-21T11:26:49.703Z,40.47
2016-04-21T11:27:49.956Z,40.36
2016-04-21T11:28:49.178Z,40.45
2016-04-21T11:29:49.899Z,40.61
2016-04-21T11:30:49.980Z,40.72
2016-04-21T11:31:50.060Z,40.64
2016-04-21T11:32:50.125Z,40.57
2016-04-21T11:33:50.191Z,40.57
2016-04-21T11:34:50.334Z,40.45
2016-04-21T11:35:51.118Z,40.4
2016-04-21T11:36:50.371Z,40.21
2016-04-21T11:37:50.435Z,40.08
2016-04-21T11:38:50.657Z,39.93
2016-04-21T11:39:50.457Z,39.58
2016-04-21T11:40:50.600Z,39.25
2016-04-21T11:41:51.166Z,39.08
2016-04-21T11:42:50.824Z,38.95
2016-04-21T11:43:50.827Z,39.25
2016-04-21T11:44:50.924Z,39.28
2016-04-21T11:45:50.943Z,39.54
2016-04-21T11:46:52.070Z,39.55
2016-04-21T11:47:51.056Z,39.67
2016-04-21T11:48:51.137Z,39.89
2016-04-21T11:49:51.328Z,39.99
2016-04-21T11:50:51.346Z,40.04
2016-04-21T11:51:51.349Z,40.26
2016-04-21T11:52:52.367Z,40.52
2016-04-21T11:53:52.197Z,40.66
2016-04-21T11:54:51.903Z,40.75
2016-04-21T11:55:52.187Z,40.9
2016-04-21T11:56:52.050Z,40.91
2016-04-21T11:57:51.725Z,41.08
2016-04-21T11:58:51.789Z,41.15
2016-04-21T11:59:51.886Z,41.22
2016-04-21T12:00:52.060Z,41.25
2016-04-21T12:01:52.094Z,41.24
2016-04-21T12:02:52.050Z,41.15
2016-04-21T12:03:52.178Z,41.13
2016-04-21T12:04:52.181Z,41.13
2016-04-21T12:05:52.261Z,41.18
2016-04-21T12:06:52.436Z,41.33
2016-04-21T12:07:52.454Z,41.36
2016-04-21T12:08:52.441Z,41.36
2016-04-21T12:09:52.663Z,41.47
2016-04-21T12:10:52.571Z,41.4
2016-04-21T12:11:52.902Z,41.31
2016-04-21T12:12:54.452Z,41.24
2016-04-21T12:13:52.813Z,41.31
2016-04-21T12:14:52.926Z,41.27
2016-04-21T12:15:53.319Z,41.24
2016-04-21T12:16:52.979Z,41.18
2016-04-21T12:17:53.106Z,41.18
2016-04-21T12:18:53.109Z,41.17
2016-04-21T12:19:53.158Z,40.99
2016-04-21T12:20:53.239Z,40.91
2016-04-21T12:21:53.367Z,40.87
2016-04-21T12:22:52.884Z,40.84
2016-04-21T12:23:53.607Z,40.8
2016-04-21T12:24:53.500Z,40.79
2016-04-21T12:25:52.925Z,40.94
2016-04-21T12:26:54.177Z,40.83
2016-04-21T12:27:53.712Z,40.83
2016-04-21T12:28:53.979Z,40.76
2016-04-21T12:29:53.856Z,40.72
2016-04-21T12:30:54.125Z,40.74
2016-04-21T12:31:55.206Z,40.64
2016-04-21T12:32:54.162Z,40.88
2016-04-21T12:33:54.086Z,40.88
2016-04-21T12:34:54.136Z,41.05
2016-04-21T12:35:55.404Z,41.1
2016-04-21T12:36:55.094Z,41.13
2016-04-21T12:37:54.738Z,41.1
2016-04-21T12:38:53.631Z,41.17
2016-04-21T12:39:54.555Z,41.17
2016-04-21T12:40:55.465Z,41.25
2016-04-21T12:41:54.624Z,41.28
2016-04-21T12:42:54.721Z,41.37
2016-04-21T12:43:54.879Z,41.37
2016-04-21T12:44:56.007Z,41.33
2016-04-21T12:45:54.868Z,41.27
2016-04-21T12:46:55.106Z,41.18
2016-04-21T12:47:55.062Z,40.91
2016-04-21T12:48:55.048Z,40.81
2016-04-21T12:49:55.521Z,40.84
2016-04-21T12:50:55.304Z,40.87
2016-04-21T12:51:55.995Z,40.87
2016-04-21T12:52:55.388Z,40.9
2016-04-21T12:53:56.625Z,40.83
2016-04-21T12:54:55.518Z,40.88
2016-04-21T12:55:54.911Z,40.76
2016-04-21T12:56:56.976Z,40.84
2016-04-21T12:57:57.057Z,40.84
2016-04-21T12:58:55.779Z,40.94
2016-04-21T12:59:56.110Z,40.91
2016-04-21T13:00:56.050Z,41.05
2016-04-21T13:01:56.334Z,41.08
2016-04-21T13:02:56.134Z,41.18
2016-04-21T13:03:56.245Z,41.15
2016-04-21T13:04:57.700Z,41.06
2016-04-21T13:05:56.907Z,40.83
2016-04-21T13:06:56.394Z,40.69
2016-04-21T13:07:56.366Z,40.46
2016-04-21T13:08:57.727Z,40.21
2016-04-21T13:09:56.699Z,40.11
2016-04-21T13:10:56.499Z,39.99